Time;durP1;ratioP1;P1;durP2;ratioP2;P2;SDS_P1;SDS_P2;PMS_P1;PMS_P2;Temp;Humidity;BMP_temperature;BMP_pressure;BME280_temperature;BME280_humidity;BME280_pressure;Samples;Min_cycle;Max_cycle;Signal;HPM_P1;HPM_P2
2022/07/04 00:01:23;;;;;;;7.83;1.60;;;22.20;99.90;;;;;;5133969;27;20565;-71
2022/07/04 00:03:49;;;;;;;7.70;1.53;;;22.30;99.90;;;;;;5134382;27;20444;-71
2022/07/04 00:06:17;;;;;;;8.47;1.53;;;22.30;99.90;;;;;;5133715;27;20465;-71
2022/07/04 00:08:46;;;;;;;7.80;1.50;;;22.40;99.90;;;;;;5134173;27;20443;-71
2022/07/04 00:11:12;;;;;;;7.67;1.30;;;22.40;99.90;;;;;;5135397;27;20487;-71
2022/07/04 00:13:39;;;;;;;7.20;1.30;;;22.40;99.90;;;;;;5143958;27;20530;-71
2022/07/04 00:16:06;;;;;;;7.00;1.20;;;22.40;99.90;;;;;;5133770;27;20885;-71
2022/07/04 00:18:33;;;;;;;7.80;1.37;;;22.40;99.90;;;;;;5133929;27;20526;-71
2022/07/04 00:21:00;;;;;;;7.00;1.23;;;22.40;99.90;;;;;;5133095;27;21064;-72
2022/07/04 00:23:27;;;;;;;7.20;1.20;;;22.50;99.90;;;;;;5133875;27;20439;-71
2022/07/04 00:25:55;;;;;;;8.03;1.40;;;22.40;99.90;;;;;;5135587;27;20529;-71
2022/07/04 00:28:22;;;;;;;7.00;1.33;;;22.20;99.90;;;;;;5135142;27;20489;-71
2022/07/04 00:30:48;;;;;;;7.60;1.17;;;22.30;99.90;;;;;;5135652;27;20451;-71
2022/07/04 00:33:16;;;;;;;10.60;1.20;;;22.40;99.90;;;;;;5134818;27;21024;-71
2022/07/04 00:35:43;;;;;;;6.77;1.13;;;22.40;99.90;;;;;;5134155;27;20760;-70
2022/07/04 00:38:10;;;;;;;6.80;1.20;;;22.40;99.90;;;;;;5132950;27;20447;-70
2022/07/04 00:40:37;;;;;;;7.57;1.50;;;22.30;99.90;;;;;;5133807;27;20443;-71
2022/07/04 00:43:06;;;;;;;7.30;1.50;;;22.30;99.90;;;;;;5133589;27;20485;-71
2022/07/04 00:45:33;;;;;;;7.43;1.27;;;22.20;99.90;;;;;;5133082;27;20451;-70
2022/07/04 00:48:00;;;;;;;8.67;1.60;;;22.00;99.90;;;;;;5132758;27;20457;-72
2022/07/04 00:50:27;;;;;;;7.70;1.50;;;22.00;99.90;;;;;;5133683;27;20435;-70
2022/07/04 00:52:55;;;;;;;6.83;1.20;;;22.20;99.90;;;;;;5133409;27;20445;-70
2022/07/04 00:55:23;;;;;;;6.57;1.30;;;22.30;99.90;;;;;;5133396;27;20455;-70
2022/07/04 00:57:50;;;;;;;7.10;1.30;;;22.10;99.90;;;;;;5133023;27;20443;-70
2022/07/04 01:00:19;;;;;;;7.50;1.30;;;22.00;99.90;;;;;;5133006;27;20451;-71
2022/07/04 01:02:47;;;;;;;6.80;1.60;;;22.20;99.90;;;;;;5132929;27;20497;-71
2022/07/04 01:05:14;;;;;;;6.40;1.00;;;22.00;99.90;;;;;;5132598;27;20538;-71
2022/07/04 01:07:41;;;;;;;6.70;1.30;;;22.10;99.90;;;;;;5132412;27;20950;-71
2022/07/04 01:10:09;;;;;;;9.47;1.40;;;22.10;99.90;;;;;;5131177;27;20880;-71
2022/07/04 01:12:37;;;;;;;6.80;1.47;;;22.00;99.90;;;;;;5142327;27;20497;-71
2022/07/04 01:15:04;;;;;;;8.80;1.50;;;21.70;99.90;;;;;;5132871;27;20465;-71
2022/07/04 01:17:32;;;;;;;6.80;1.27;;;21.80;99.90;;;;;;5127686;27;20455;-71
2022/07/04 01:19:59;;;;;;;6.90;1.33;;;21.80;99.90;;;;;;5132550;27;20445;-71
2022/07/04 01:22:27;;;;;;;7.10;1.60;;;21.80;99.90;;;;;;5132764;27;20996;-70
2022/07/04 01:24:54;;;;;;;7.63;1.30;;;21.80;99.90;;;;;;5132133;27;20470;-70
2022/07/04 01:27:21;;;;;;;7.10;1.43;;;21.80;99.90;;;;;;5132255;27;20458;-70
2022/07/04 01:29:48;;;;;;;7.00;1.30;;;21.80;99.90;;;;;;5132958;27;20445;-70
2022/07/04 01:32:17;;;;;;;7.20;1.47;;;21.80;99.90;;;;;;5132047;27;20815;-71
2022/07/04 01:34:43;;;;;;;7.53;1.20;;;21.70;99.90;;;;;;5133124;27;20490;-71
2022/07/04 01:37:10;;;;;;;7.00;1.27;;;21.50;99.90;;;;;;5131457;27;20435;-71
2022/07/04 01:39:39;;;;;;;6.70;1.10;;;21.50;99.90;;;;;;5132388;27;20451;-71
2022/07/04 01:42:06;;;;;;;7.23;1.40;;;21.50;99.90;;;;;;5131310;27;20569;-71
2022/07/04 01:44:33;;;;;;;7.57;1.30;;;21.60;99.90;;;;;;5132267;27;20941;-72
2022/07/04 01:47:00;;;;;;;7.10;1.40;;;21.60;99.90;;;;;;5131100;27;20537;-72
2022/07/04 01:49:27;;;;;;;6.83;1.17;;;21.40;99.90;;;;;;5132527;27;20450;-72
2022/07/04 01:51:54;;;;;;;7.00;1.47;;;21.50;99.90;;;;;;5131744;27;20450;-71
2022/07/04 01:54:21;;;;;;;7.23;1.20;;;21.50;99.90;;;;;;5132670;27;20470;-71
2022/07/04 01:56:49;;;;;;;6.87;1.13;;;21.50;99.90;;;;;;5131981;27;20438;-71
2022/07/04 01:59:16;;;;;;;6.93;1.23;;;21.20;99.90;;;;;;5131664;27;20440;-71
2022/07/04 02:01:42;;;;;;;8.10;1.33;;;21.10;99.90;;;;;;5131145;27;20573;-71
2022/07/04 02:04:09;;;;;;;8.43;1.37;;;21.20;99.90;;;;;;5131589;27;20538;-71
2022/07/04 02:06:36;;;;;;;7.27;1.63;;;21.20;99.90;;;;;;5131356;27;20189;-71
2022/07/04 02:09:15;;;;;;;7.43;1.60;;;21.20;99.90;;;;;;5131484;27;20451;-72
2022/07/04 02:14:29;;;;;;;7.67;1.40;;;21.10;99.90;;;;;;5134812;27;20941;-71
2022/07/04 02:16:56;;;;;;;7.30;1.30;;;21.10;99.90;;;;;;5131114;27;20439;-71
2022/07/04 02:19:22;;;;;;;7.50;1.57;;;21.10;99.90;;;;;;5131695;27;20435;-71
2022/07/04 02:21:49;;;;;;;7.10;1.23;;;21.10;99.90;;;;;;5131973;27;20806;-71
2022/07/04 02:24:16;;;;;;;8.70;1.30;;;20.90;99.90;;;;;;5131265;27;20473;-72
2022/07/04 02:26:43;;;;;;;7.23;1.30;;;21.10;99.90;;;;;;5131513;27;20457;-71
2022/07/04 02:29:10;;;;;;;7.93;1.70;;;21.20;99.90;;;;;;5131254;27;20453;-71
2022/07/04 02:31:39;;;;;;;7.50;1.40;;;20.90;99.90;;;;;;5131812;27;20443;-72
2022/07/04 02:34:06;;;;;;;7.30;1.30;;;21.00;99.90;;;;;;5130924;27;20831;-72
2022/07/04 02:36:32;;;;;;;7.20;1.40;;;21.20;99.90;;;;;;5131604;27;20443;-72
2022/07/04 02:38:59;;;;;;;7.57;1.30;;;21.20;99.90;;;;;;5130999;27;20443;-72
2022/07/04 02:41:26;;;;;;;7.17;1.07;;;21.00;99.90;;;;;;5131529;28;20505;-71
2022/07/04 02:43:53;;;;;;;7.40;1.47;;;20.80;99.90;;;;;;5131483;28;20550;-71
2022/07/04 02:46:20;;;;;;;7.13;1.40;;;21.00;99.90;;;;;;5131550;28;20451;-71
2022/07/04 02:48:48;;;;;;;7.20;1.37;;;20.80;99.90;;;;;;5131657;28;20543;-71
2022/07/04 02:51:15;;;;;;;7.43;1.30;;;20.80;99.90;;;;;;5130793;27;20447;-71
2022/07/04 02:53:42;;;;;;;7.93;1.70;;;20.90;99.90;;;;;;5135537;27;20451;-71
2022/07/04 02:56:09;;;;;;;8.33;1.33;;;20.60;99.90;;;;;;5134893;27;20811;-71
2022/07/04 02:58:36;;;;;;;7.57;1.50;;;20.50;99.90;;;;;;5135513;27;20447;-71
2022/07/04 03:01:03;;;;;;;7.80;1.60;;;20.50;99.90;;;;;;5135045;27;20537;-71
2022/07/04 03:03:30;;;;;;;8.17;1.60;;;20.30;99.90;;;;;;5135004;27;20459;-71
2022/07/04 03:05:58;;;;;;;8.50;1.37;;;20.30;99.90;;;;;;5134916;27;20443;-71
2022/07/04 03:08:25;;;;;;;7.50;1.40;;;20.30;99.90;;;;;;5135383;27;20443;-71
2022/07/04 03:10:52;;;;;;;7.30;1.80;;;20.30;99.90;;;;;;5129487;27;20435;-71
2022/07/04 03:13:20;;;;;;;7.30;1.40;;;20.50;99.90;;;;;;5147788;27;20505;-71
2022/07/04 03:15:47;;;;;;;7.40;1.40;;;20.70;99.90;;;;;;5135692;27;20443;-71
2022/07/04 03:18:14;;;;;;;7.33;1.53;;;20.50;99.90;;;;;;5134533;27;20446;-71
2022/07/04 03:20:40;;;;;;;7.50;1.57;;;20.50;99.90;;;;;;5135275;27;20439;-71
2022/07/04 03:23:09;;;;;;;7.20;1.80;;;20.40;99.90;;;;;;5134451;27;20581;-71
2022/07/04 03:25:36;;;;;;;8.17;1.70;;;20.40;99.90;;;;;;5134481;27;20453;-72
2022/07/04 03:28:04;;;;;;;7.10;1.37;;;20.30;99.90;;;;;;5134059;27;20447;-71
2022/07/04 03:30:30;;;;;;;7.60;1.10;;;20.00;99.90;;;;;;5134317;27;20450;-71
2022/07/04 03:32:57;;;;;;;7.53;1.57;;;20.10;99.90;;;;;;5134557;27;20483;-72
2022/07/04 03:35:24;;;;;;;7.90;1.60;;;20.20;99.90;;;;;;5134771;27;20447;-71
2022/07/04 03:37:51;;;;;;;8.07;1.60;;;20.30;99.90;;;;;;5134762;27;20438;-72
2022/07/04 03:40:20;;;;;;;8.17;1.70;;;20.20;99.90;;;;;;5133998;27;20443;-71
2022/07/04 03:42:47;;;;;;;7.40;1.70;;;20.30;99.90;;;;;;5134874;27;20988;-71
2022/07/04 03:45:14;;;;;;;7.27;1.50;;;19.90;99.90;;;;;;5133093;27;20443;-71
2022/07/04 03:47:42;;;;;;;7.60;1.53;;;20.20;99.90;;;;;;5134202;27;20942;-71
2022/07/04 03:50:09;;;;;;;7.30;1.37;;;20.20;99.90;;;;;;5133588;27;20454;-71
2022/07/04 03:52:36;;;;;;;7.80;1.40;;;20.20;99.90;;;;;;5134204;27;20949;-71
2022/07/04 03:55:03;;;;;;;8.63;1.60;;;20.30;99.90;;;;;;5134085;27;20492;-71
2022/07/04 03:57:31;;;;;;;9.23;2.40;;;20.10;99.90;;;;;;5134037;27;20457;-71
2022/07/04 03:59:58;;;;;;;7.50;1.50;;;20.50;99.90;;;;;;5134033;27;20447;-71
2022/07/04 04:02:25;;;;;;;7.10;1.40;;;20.60;99.90;;;;;;5133268;27;20486;-71
2022/07/04 04:07:37;;;;;;;7.50;1.33;;;20.10;99.90;;;;;;5134006;27;20518;-71
2022/07/04 04:10:04;;;;;;;7.57;1.47;;;20.10;99.90;;;;;;5133139;27;20507;-71
2022/07/04 04:12:33;;;;;;;7.90;1.73;;;19.90;99.90;;;;;;5145665;27;20468;-71
2022/07/04 04:14:59;;;;;;;7.50;1.43;;;19.90;99.90;;;;;;5133645;27;20439;-71
2022/07/04 04:17:26;;;;;;;8.03;1.80;;;19.90;99.90;;;;;;5134213;27;20446;-71
2022/07/04 04:19:54;;;;;;;7.70;1.40;;;20.20;99.90;;;;;;5133751;27;20459;-71
2022/07/04 04:22:20;;;;;;;7.37;1.43;;;20.10;99.90;;;;;;5133887;27;20561;-71
2022/07/04 04:24:47;;;;;;;7.70;1.60;;;20.10;99.90;;;;;;5134225;27;20552;-71
2022/07/04 04:27:14;;;;;;;11.07;1.80;;;20.00;99.90;;;;;;5133235;27;20485;-71
2022/07/04 04:29:42;;;;;;;10.27;1.60;;;19.90;99.90;;;;;;5133392;27;20458;-71
2022/07/04 04:32:09;;;;;;;7.30;1.40;;;20.10;99.90;;;;;;5132494;27;20477;-71
2022/07/04 04:34:36;;;;;;;7.20;1.27;;;19.90;99.90;;;;;;5134319;27;20443;-69
2022/07/04 04:37:03;;;;;;;7.50;1.30;;;19.90;99.90;;;;;;5132668;27;20481;-72
2022/07/04 04:39:30;;;;;;;7.53;1.40;;;19.70;99.90;;;;;;5133238;27;20485;-73
2022/07/04 04:41:57;;;;;;;11.60;1.60;;;19.80;99.90;;;;;;5132990;27;20483;-72
2022/07/04 04:44:24;;;;;;;8.03;1.53;;;19.80;99.90;;;;;;5133597;27;20474;-72
2022/07/04 04:46:52;;;;;;;7.63;1.30;;;19.70;99.90;;;;;;5133092;27;20446;-72
2022/07/04 04:49:19;;;;;;;7.43;1.23;;;19.50;99.90;;;;;;5133466;27;20443;-74
2022/07/04 04:51:46;;;;;;;7.70;1.70;;;19.50;99.90;;;;;;5133818;27;20447;-74
2022/07/04 04:54:13;;;;;;;12.00;1.63;;;19.40;1.00;;;;;;5132877;27;20446;-71
2022/07/04 04:56:40;;;;;;;8.13;1.50;;;19.40;1.00;;;;;;5132398;27;20472;-72
2022/07/04 04:59:07;;;;;;;7.50;1.40;;;19.40;1.00;;;;;;5131342;27;20450;-73
2022/07/04 05:01:35;;;;;;;9.33;2.30;;;19.40;1.00;;;;;;5132558;27;20465;-71
2022/07/04 05:04:03;;;;;;;11.00;3.63;;;19.40;1.00;;;;;;5132746;27;20475;-71
2022/07/04 05:06:30;;;;;;;8.27;1.50;;;19.50;1.00;;;;;;5132748;27;21248;-74
2022/07/04 05:08:57;;;;;;;10.67;2.00;;;19.50;1.00;;;;;;5132402;27;20443;-72
2022/07/04 05:11:24;;;;;;;8.70;1.70;;;19.60;1.00;;;;;;5137212;27;20464;-72
2022/07/04 05:13:51;;;;;;;9.10;1.73;;;19.50;1.00;;;;;;5134614;27;20443;-78
2022/07/04 05:16:17;;;;;;;8.47;1.83;;;19.30;1.00;;;;;;5132488;27;20826;-78
2022/07/04 05:18:44;;;;;;;7.40;1.20;;;19.40;1.00;;;;;;5134741;27;20453;-77
2022/07/04 05:21:12;;;;;;;8.40;1.93;;;19.50;1.00;;;;;;5132042;27;20451;-73
2022/07/04 05:23:39;;;;;;;8.57;1.60;;;19.40;1.00;;;;;;5133351;27;20479;-73
2022/07/04 05:26:06;;;;;;;8.93;1.70;;;19.40;1.00;;;;;;5131786;27;20531;-73
2022/07/04 05:28:33;;;;;;;7.83;1.47;;;19.60;1.00;;;;;;5132749;27;20976;-71
2022/07/04 05:31:00;;;;;;;8.07;1.63;;;19.60;1.00;;;;;;5131777;27;20443;-70
2022/07/04 05:33:27;;;;;;;7.70;1.30;;;19.50;1.00;;;;;;5132962;27;20486;-70
2022/07/04 05:35:54;;;;;;;10.20;1.80;;;19.40;1.00;;;;;;5132743;27;20789;-70
2022/07/04 05:38:22;;;;;;;9.80;1.50;;;19.60;1.00;;;;;;5133214;27;20470;-70
2022/07/04 05:40:49;;;;;;;8.20;1.80;;;19.40;1.00;;;;;;5132751;27;20525;-70
2022/07/04 05:43:16;;;;;;;7.57;1.23;;;19.40;1.00;;;;;;5132047;27;21037;-70
2022/07/04 05:45:43;;;;;;;8.07;1.50;;;19.40;1.00;;;;;;5132467;27;20986;-70
2022/07/04 05:48:10;;;;;;;7.57;1.30;;;19.70;1.00;;;;;;5131819;27;20447;-70
2022/07/04 05:50:37;;;;;;;7.50;1.40;;;20.10;1.00;;;;;;5132507;27;20460;-70
2022/07/04 05:53:03;;;;;;;7.73;1.53;;;20.20;99.90;;;;;;5131885;27;20562;-70
2022/07/04 05:55:32;;;;;;;8.20;1.60;;;20.40;99.90;;;;;;5132147;27;20461;-70
2022/07/04 05:57:58;;;;;;;7.50;1.30;;;20.60;99.90;;;;;;5131290;27;20975;-70
2022/07/04 06:00:25;;;;;;;7.80;2.13;;;20.70;99.90;;;;;;5132656;27;20459;-70
2022/07/04 06:02:52;;;;;;;7.17;1.10;;;20.80;99.90;;;;;;5132279;27;20478;-70
2022/07/04 06:05:19;;;;;;;8.23;1.83;;;20.90;99.90;;;;;;5132679;27;20447;-70
2022/07/04 06:07:48;;;;;;;7.57;1.40;;;20.90;99.90;;;;;;5132022;27;20805;-70
2022/07/04 06:10:15;;;;;;;7.87;1.57;;;21.00;99.90;;;;;;5131780;27;20470;-70
2022/07/04 06:12:43;;;;;;;7.83;1.53;;;21.10;99.90;;;;;;5145318;27;20458;-69
2022/07/04 06:15:11;;;;;;;7.70;1.80;;;21.20;99.90;;;;;;5132769;27;20447;-69
2022/07/04 06:17:38;;;;;;;7.40;1.50;;;21.50;99.90;;;;;;5132795;27;20439;-70
2022/07/04 06:20:06;;;;;;;7.50;1.33;;;21.30;99.90;;;;;;5132553;27;20447;-70
2022/07/04 06:22:41;;;;;;;8.30;1.60;;;21.20;99.90;;;;;;5132670;27;20551;-70
2022/07/04 06:25:10;;;;;;;7.30;1.40;;;21.30;99.90;;;;;;5131760;27;20512;-70
2022/07/04 06:27:37;;;;;;;8.00;1.50;;;21.30;99.90;;;;;;5131191;27;20443;-70
2022/07/04 06:30:07;;;;;;;7.17;1.33;;;21.30;99.90;;;;;;5131662;27;20457;-70
2022/07/04 06:32:42;;;;;;;7.20;1.20;;;21.30;99.90;;;;;;5131965;27;20482;-70
2022/07/04 06:37:55;;;;;;;8.10;1.40;;;21.20;99.90;;;;;;5119751;27;20418;-70
2022/07/04 06:40:21;;;;;;;8.07;1.30;;;21.30;99.90;;;;;;5132013;28;20522;-70
2022/07/04 06:42:49;;;;;;;7.57;1.30;;;21.30;99.90;;;;;;5132072;28;20475;-70
2022/07/04 06:45:17;;;;;;;7.70;1.80;;;21.30;99.90;;;;;;5131557;28;20830;-69
2022/07/04 06:47:44;;;;;;;7.00;1.20;;;21.50;99.90;;;;;;5131642;28;20451;-69
2022/07/04 06:50:12;;;;;;;8.37;1.57;;;21.50;99.90;;;;;;5131051;28;20941;-69
2022/07/04 06:52:39;;;;;;;6.80;1.20;;;21.70;99.90;;;;;;5131707;28;20451;-69
2022/07/04 06:55:06;;;;;;;8.57;1.90;;;21.60;99.90;;;;;;5131361;28;20453;-69
2022/07/04 06:57:33;;;;;;;6.73;1.20;;;21.70;99.90;;;;;;5131364;28;20449;-69
2022/07/04 07:00:00;;;;;;;7.20;1.60;;;21.60;99.90;;;;;;5130585;28;20614;-70
2022/07/04 07:02:28;;;;;;;7.20;1.40;;;21.60;99.90;;;;;;5131746;28;20459;-69
2022/07/04 07:04:56;;;;;;;7.20;1.60;;;21.70;99.90;;;;;;5131250;28;20463;-70
2022/07/04 07:07:24;;;;;;;7.57;1.30;;;21.70;99.90;;;;;;5131201;28;20507;-70
2022/07/04 07:09:51;;;;;;;6.70;1.30;;;21.80;99.90;;;;;;5131754;28;20439;-69
2022/07/04 07:12:18;;;;;;;7.20;1.40;;;21.80;99.90;;;;;;5142515;27;20446;-70
2022/07/04 07:14:45;;;;;;;7.00;1.40;;;22.10;99.90;;;;;;5132034;27;20457;-69
2022/07/04 07:17:12;;;;;;;6.37;1.20;;;22.00;99.90;;;;;;5130453;28;20446;-70
2022/07/04 07:19:40;;;;;;;6.50;1.47;;;22.20;99.90;;;;;;5131604;28;20537;-69
2022/07/04 07:22:07;;;;;;;6.90;1.70;;;22.20;99.90;;;;;;5131206;28;20455;-70
2022/07/04 07:24:34;;;;;;;7.50;1.50;;;22.10;99.90;;;;;;5131734;28;20488;-70
2022/07/04 07:27:01;;;;;;;7.83;1.67;;;22.30;99.90;;;;;;5130437;28;20447;-70
2022/07/04 07:29:28;;;;;;;8.07;1.60;;;22.30;99.90;;;;;;5131267;28;20451;-70
2022/07/04 07:31:55;;;;;;;7.03;1.60;;;22.50;99.90;;;;;;5130582;28;20459;-70
2022/07/04 07:34:22;;;;;;;7.20;1.40;;;22.50;99.90;;;;;;5131818;28;20447;-69
2022/07/04 07:36:51;;;;;;;7.53;1.43;;;22.40;99.90;;;;;;5130805;28;20982;-69
2022/07/04 07:39:17;;;;;;;7.27;1.47;;;22.60;99.90;;;;;;5132469;27;20454;-70
2022/07/04 07:41:45;;;;;;;7.03;1.50;;;22.30;99.90;;;;;;5135044;27;20455;-70
2022/07/04 07:44:11;;;;;;;6.90;1.10;;;22.30;99.90;;;;;;5134667;27;20483;-70
2022/07/04 07:46:38;;;;;;;6.67;1.23;;;22.30;99.90;;;;;;5134591;27;20443;-69
2022/07/04 07:49:05;;;;;;;7.57;1.30;;;22.30;99.90;;;;;;5134716;27;20447;-70
2022/07/04 07:51:32;;;;;;;7.27;1.30;;;22.30;99.90;;;;;;5135092;27;20446;-70
2022/07/04 07:54:00;;;;;;;7.20;1.73;;;22.20;99.90;;;;;;5134220;27;20462;-70
2022/07/04 07:56:27;;;;;;;7.00;1.40;;;22.20;99.90;;;;;;5134139;27;20443;-70
2022/07/04 07:58:55;;;;;;;7.10;1.40;;;22.40;99.90;;;;;;5134224;27;20955;-71
2022/07/04 08:01:22;;;;;;;7.60;1.63;;;22.50;99.90;;;;;;5134572;27;20450;-70
2022/07/04 08:06:33;;;;;;;6.60;1.43;;;22.60;99.90;;;;;;5134047;27;20519;-70
2022/07/04 08:09:02;;;;;;;7.37;1.40;;;22.50;99.90;;;;;;5134322;27;20455;-70
2022/07/04 08:11:29;;;;;;;7.20;1.60;;;22.30;99.90;;;;;;5138542;27;20460;-70
2022/07/04 08:13:56;;;;;;;6.97;1.50;;;22.40;99.90;;;;;;5141751;27;20446;-70
2022/07/04 08:16:23;;;;;;;6.53;1.50;;;22.50;99.90;;;;;;5133966;27;20489;-70
2022/07/04 08:18:50;;;;;;;6.37;1.40;;;22.60;99.90;;;;;;5134503;27;20465;-70
2022/07/04 08:21:16;;;;;;;10.23;1.80;;;22.70;99.90;;;;;;5133607;27;20449;-70
2022/07/04 08:23:43;;;;;;;7.77;1.90;;;22.70;99.90;;;;;;5134024;27;20519;-70
2022/07/04 08:26:12;;;;;;;6.70;1.50;;;22.70;99.90;;;;;;5133005;27;20946;-70
2022/07/04 08:28:38;;;;;;;6.93;1.50;;;22.60;99.90;;;;;;5134511;27;20454;-70
2022/07/04 08:31:05;;;;;;;6.90;1.60;;;22.70;99.90;;;;;;5133785;27;20454;-70
2022/07/04 08:33:32;;;;;;;7.00;1.40;;;22.80;99.90;;;;;;5134390;27;20474;-70
2022/07/04 08:35:59;;;;;;;6.47;1.50;;;22.70;99.90;;;;;;5126358;27;20443;-71
2022/07/04 08:38:26;;;;;;;7.07;1.97;;;22.80;99.90;;;;;;5133923;27;21024;-70
2022/07/04 08:40:57;;;;;;;10.60;2.00;;;;;;;;;;5134295;27;20478;-70
2022/07/04 08:43:26;;;;;;;6.73;1.40;;;;;;;;;;5134149;27;20471;-70
2022/07/04 08:45:54;;;;;;;6.30;1.17;;;;;;;;;;5133956;27;20447;-70
2022/07/04 08:48:25;;;;;;;6.20;1.20;;;;;;;;;;5134043;27;20451;-70
2022/07/04 08:50:53;;;;;;;6.60;1.40;;;;;;;;;;5133936;27;20500;-70
2022/07/04 08:53:21;;;;;;;6.27;1.40;;;;;;;;;;5133948;27;20802;-70
2022/07/04 08:58:35;;;;;;;6.30;1.30;;;;;;;;;;5133663;27;20415;-70
2022/07/04 09:01:05;;;;;;;6.50;1.73;;;;;;;;;;5133253;27;20862;-70
2022/07/04 09:03:32;;;;;;;6.90;1.20;;;;;;;;;;5133689;27;21048;-70
2022/07/04 09:06:00;;;;;;;6.30;1.63;;;;;;;;;;5132626;27;20443;-71
2022/07/04 09:08:28;;;;;;;6.70;1.53;;;;;;;;;;5133644;27;20880;-70
2022/07/04 09:10:55;;;;;;;6.00;1.20;;;;;;;;;;5132562;27;20534;-71
2022/07/04 09:13:22;;;;;;;7.50;1.90;;;;;;;;;;5145903;27;20484;-70
2022/07/04 09:15:53;;;;;;;6.10;1.50;;;;;;;;;;5132863;27;20486;-70
2022/07/04 09:18:21;;;;;;;6.27;1.20;;;;;;;;;;5133649;27;20431;-70
2022/07/04 09:20:48;;;;;;;6.50;1.77;;;;;;;;;;5133011;27;20882;-70
2022/07/04 09:23:18;;;;;;;6.37;1.50;;;;;;;;;;5132232;27;20963;-70
2022/07/04 09:25:45;;;;;;;6.57;1.57;;;;;;;;;;5132258;27;20469;-70
2022/07/04 09:28:12;;;;;;;5.63;1.63;;;;;;;;;;5132559;27;20446;-70
2022/07/04 09:30:48;;;;;;;7.17;1.80;;;;;;;;;;5133065;27;20820;-70
2022/07/04 09:33:18;;;;;;;6.07;1.60;;;;;;;;;;5132700;27;20491;-70
2022/07/04 09:35:46;;;;;;;6.30;1.70;;;;;;;;;;5132454;27;20451;-70
2022/07/04 09:38:13;;;;;;;6.00;1.60;;;;;;;;;;5132649;27;20491;-70
2022/07/04 09:43:22;;;;;;;6.50;1.60;;;;;;;;;;5131530;27;20513;-70
2022/07/04 09:45:56;;;;;;;6.20;1.37;;;;;;;;;;5132826;27;20479;-70
2022/07/04 09:48:24;;;;;;;6.27;1.47;;;;;;;;;;5132556;27;20443;-70
2022/07/04 09:50:51;;;;;;;6.67;1.60;;;;;;;;;;5132988;27;20447;-70
2022/07/04 09:53:19;;;;;;;5.63;1.70;;;;;;;;;;5131784;27;20466;-71
2022/07/04 09:55:46;;;;;;;6.40;1.67;;;;;;;;;;5132216;27;20786;-70
2022/07/04 09:58:14;;;;;;;6.30;1.80;;;;;;;;;;5131878;27;20803;-69
2022/07/04 10:00:42;;;;;;;6.97;1.70;;;;;;;;;;5132463;27;20450;-69
2022/07/04 10:03:20;;;;;;;5.60;1.50;;;;;;;;;;5131531;27;20451;-69
2022/07/04 10:06:02;;;;;;;5.57;1.57;;;;;;;;;;5132280;27;20812;-70
2022/07/04 10:08:29;;;;;;;5.77;1.50;;;;;;;;;;5132237;27;20470;-70
2022/07/04 10:10:58;;;;;;;6.63;1.67;;;;;;;;;;5131277;27;20443;-70
2022/07/04 10:13:25;;;;;;;6.33;1.47;;;;;;;;;;5120259;27;20812;-69
2022/07/04 10:15:53;;;;;;;5.40;1.10;;;;;;;;;;5131753;27;20534;-70
2022/07/04 10:18:20;;;;;;;9.20;1.70;;;;;;;;;;5132551;27;20446;-71
2022/07/04 10:20:49;;;;;;;5.80;1.50;;;;;;;;;;5131953;27;20447;-69
2022/07/04 10:23:17;;;;;;;6.90;1.73;;;;;;;;;;5131789;27;20457;-70
2022/07/04 10:25:44;;;;;;;9.10;1.70;;;;;;;;;;5131227;27;20529;-70
2022/07/04 10:28:12;;;;;;;5.60;1.40;;;;;;;;;;5131263;27;20447;-70
2022/07/04 10:30:40;;;;;;;5.60;1.27;;;;;;;;;;5132092;27;20465;-70
2022/07/04 10:33:09;;;;;;;6.80;1.73;;;;;;;;;;5131187;27;20489;-70
2022/07/04 10:35:51;;;;;;;5.50;1.50;;;;;;;;;;5131593;27;20453;-70
2022/07/04 10:38:18;;;;;;;5.60;1.67;;;;;;;;;;5131261;27;20958;-70
2022/07/04 10:40:47;;;;;;;5.17;1.20;;;;;;;;;;5131510;27;20454;-70
2022/07/04 10:43:36;;;;;;;5.67;1.53;;;;;;;;;;5131261;28;20833;-70
2022/07/04 10:46:19;;;;;;;5.73;1.90;;;;;;;;;;5119911;28;20516;-70
2022/07/04 10:48:49;;;;;;;6.80;1.63;;;;;;;;;;5131664;28;20443;-70
2022/07/04 10:51:33;;;;;;;5.53;1.50;;;;;;;;;;5131228;28;20454;-70
2022/07/04 10:54:01;;;;;;;5.80;1.87;;;;;;;;;;5131219;28;20442;-70
2022/07/04 10:56:39;;;;;;;7.70;1.70;;;;;;;;;;5131447;28;20807;-70
2022/07/04 10:59:11;;;;;;;4.93;1.57;;;;;;;;;;5131474;28;20815;-70
2022/07/04 11:01:38;;;;;;;5.37;1.67;;;;;;;;;;5131652;28;20477;-70
2022/07/04 11:04:05;;;;;;;5.00;1.73;;;;;;;;;;5131198;28;20479;-70
2022/07/04 11:06:55;;;;;;;5.13;1.60;;;;;;;;;;5131144;28;20450;-70
2022/07/04 11:09:24;;;;;;;6.50;1.97;;;22.80;99.90;;;;;;5132031;28;20807;-70
2022/07/04 11:11:52;;;;;;;4.97;1.37;;;26.70;51.10;;;;;;5139366;27;20450;-70
2022/07/04 11:14:40;;;;;;;5.10;1.60;;;26.70;49.90;;;;;;5139295;27;20822;-70
2022/07/04 11:17:08;;;;;;;5.40;1.87;;;26.60;48.70;;;;;;5134913;27;20518;-70
2022/07/04 11:19:35;;;;;;;4.90;1.40;;;26.30;45.50;;;;;;5135785;27;20452;-70
2022/07/04 11:22:05;;;;;;;5.40;1.43;;;26.20;49.80;;;;;;5135104;27;20454;-70
2022/07/04 11:24:33;;;;;;;4.60;1.43;;;26.00;49.80;;;;;;5121824;27;20478;-69
2022/07/04 11:27:00;;;;;;;6.73;2.10;;;26.10;50.70;;;;;;5134164;27;21038;-69
2022/07/04 11:29:27;;;;;;;5.23;1.63;;;26.10;50.70;;;;;;5135232;27;20463;-69
2022/07/04 11:31:55;;;;;;;5.27;1.77;;;26.40;47.90;;;;;;5135267;27;20535;-69
2022/07/04 11:34:22;;;;;;;6.27;2.20;;;26.50;45.20;;;;;;5135288;27;20447;-70
2022/07/04 11:36:51;;;;;;;6.87;1.90;;;26.40;44.10;;;;;;5135333;27;20806;-70
2022/07/04 11:39:20;;;;;;;5.57;1.60;;;26.40;42.60;;;;;;5134680;27;20438;-71
2022/07/04 11:47:20;;;;;;;6.80;2.13;;;;;;;;;;5122367;27;20455;-70
2022/07/04 11:49:49;;;;;;;7.13;1.70;;;;;;;;;;5135011;27;20450;-70
2022/07/04 11:52:16;;;;;;;4.97;1.47;;;;;;;;;;5134586;27;20453;-70
2022/07/04 11:54:46;;;;;;;5.30;2.00;;;;;;;;;;5134700;27;20454;-70
2022/07/04 11:57:21;;;;;;;4.97;1.60;;;;;;;;;;5133962;27;20438;-69
2022/07/04 11:59:56;;;;;;;5.43;1.97;;;;;;;;;;5134806;27;20454;-69
2022/07/04 12:02:23;;;;;;;5.93;2.10;;;;;;;;;;5134842;27;20454;-70
2022/07/04 12:04:51;;;;;;;5.63;1.90;;;;;;;;;;5134948;27;20541;-70
2022/07/04 12:07:19;;;;;;;4.43;1.63;;;;;;;;;;5133990;27;20447;-70
2022/07/04 12:09:48;;;;;;;4.70;1.73;;;;;;;;;;5134845;27;20453;-71
2022/07/04 12:12:17;;;;;;;5.13;1.43;;;;;;;;;;5145947;27;20464;-70
2022/07/04 12:14:59;;;;;;;4.73;1.80;;;;;;;;;;5136600;27;20442;-70
2022/07/04 12:17:31;;;;;;;5.10;1.77;;;;;;;;;;5132642;27;20465;-70
2022/07/04 12:19:59;;;;;;;4.90;1.80;;;;;;;;;;5135483;27;20565;-70
2022/07/04 12:22:27;;;;;;;5.43;1.60;;;;;;;;;;5134498;27;20932;-71
2022/07/04 12:24:56;;;;;;;4.50;1.47;;;;;;;;;;5133671;27;20976;-71
2022/07/04 12:27:24;;;;;;;4.53;1.60;;;;;;;;;;5134140;27;20457;-71
2022/07/04 12:29:52;;;;;;;4.40;1.57;;;;;;;;;;5134430;27;20471;-70
2022/07/04 12:32:19;;;;;;;4.80;1.53;;;;;;;;;;5133793;27;20565;-70
2022/07/04 12:34:47;;;;;;;4.50;1.60;;;;;;;;;;5134235;27;20464;-70
2022/07/04 12:37:14;;;;;;;4.30;1.50;;;;;;;;;;5133174;27;20450;-71
2022/07/04 12:39:43;;;;;;;4.50;1.70;;;;;;;;;;5134425;27;20529;-71
2022/07/04 12:42:13;;;;;;;4.60;1.60;;;;;;;;;;5133170;27;20478;-71
2022/07/04 12:44:41;;;;;;;4.13;1.40;;;;;;;;;;5134089;27;20506;-71
2022/07/04 12:47:08;;;;;;;6.67;1.63;;;;;;;;;;5133111;27;20442;-71
2022/07/04 12:49:36;;;;;;;5.40;2.13;;;;;;;;;;5134217;27;20523;-71
2022/07/04 12:52:10;;;;;;;6.10;1.67;;;;;;;;;;5133352;27;20442;-71
2022/07/04 12:54:38;;;;;;;5.60;2.53;;;;;;;;;;5133972;27;20439;-71
2022/07/04 12:57:09;;;;;;;4.07;1.40;;;;;;;;;;5119218;27;20451;-72
2022/07/04 12:59:38;;;;;;;5.20;1.50;;;;;;;;;;5133617;27;20452;-69
2022/07/04 13:02:05;;;;;;;4.00;1.50;;;;;;;;;;5132980;27;20450;-71
2022/07/04 13:04:33;;;;;;;4.47;1.63;;;;;;;;;;5133522;27;20474;-71
2022/07/04 13:07:01;;;;;;;4.23;1.70;;;;;;;;;;5132716;27;20889;-71
2022/07/04 13:09:28;;;;;;;3.60;1.20;;;;;;;;;;5133633;27;20441;-71
2022/07/04 13:14:42;;;;;;;4.30;1.70;;;;;;;;;;5134806;27;20499;-71
2022/07/04 13:17:09;;;;;;;4.47;1.60;;;;;;;;;;5132339;27;20453;-69
2022/07/04 13:19:36;;;;;;;4.20;1.50;;;;;;;;;;5133548;27;20486;-70
2022/07/04 13:22:04;;;;;;;4.57;1.80;;;;;;;;;;5133154;27;20446;-70
2022/07/04 13:24:31;;;;;;;3.70;1.50;;;;;;;;;;5133257;27;20446;-70
2022/07/04 13:26:58;;;;;;;4.97;1.73;;;;;;;;;;5132534;27;20453;-71
2022/07/04 13:29:25;;;;;;;5.07;1.50;;;;;;;;;;5133435;27;20481;-71
2022/07/04 13:31:54;;;;;;;4.00;1.37;;;;;;;;;;5133314;27;20450;-69
2022/07/04 13:34:21;;;;;;;4.50;1.60;;;;;;;;;;5133804;27;20435;-71
2022/07/04 13:36:48;;;;;;;4.27;1.70;;;;;;;;;;5131576;27;20955;-71
2022/07/04 13:39:16;;;;;;;4.20;1.40;;;;;;;;;;5132839;27;20473;-71
2022/07/04 13:41:43;;;;;;;4.33;1.50;;;;;;;;;;5132901;27;20869;-70
2022/07/04 13:44:15;;;;;;;6.23;1.60;;;26.50;40.30;;;;;;5132713;27;20533;-71
2022/07/04 13:46:43;;;;;;;4.20;2.03;;;27.30;1.00;;;;;;5132638;27;20802;-70
2022/07/04 13:49:12;;;;;;;3.70;1.50;;;27.20;1.00;;;;;;5132154;27;20457;-71